sensor_id;sensor_type;location;lat;lon;timestamp;temperature;humidity
76291;DHT22;65100;46.884;17.410;2022-11-12T00:01:10;4.66;79.50
76291;DHT22;65100;46.884;17.410;2022-11-12T00:03:35;4.50;79.54
76291;DHT22;65100;46.884;17.410;2022-11-12T00:06:01;4.49;79.31
76291;DHT22;65100;46.884;17.410;2022-11-12T00:08:26;4.35;78.33
76291;DHT22;65100;46.884;17.410;2022-11-12T00:10:52;4.23;79.21
76291;DHT22;65100;46.884;17.410;2022-11-12T00:13:17;4.40;79.26
76291;DHT22;65100;46.884;17.410;2022-11-12T00:15:44;4.45;79.13
76291;DHT22;65100;46.884;17.410;2022-11-12T00:18:10;4.57;80.43
76291;DHT22;65100;46.884;17.410;2022-11-12T00:20:35;4.61;79.17
76291;DHT22;65100;46.884;17.410;2022-11-12T00:23:01;4.56;79.14
76291;DHT22;65100;46.884;17.410;2022-11-12T00:25:26;4.54;79.33
76291;DHT22;65100;46.884;17.410;2022-11-12T00:27:52;4.57;79.85
76291;DHT22;65100;46.884;17.410;2022-11-12T00:30:18;4.56;78.81
76291;DHT22;65100;46.884;17.410;2022-11-12T00:32:43;4.52;77.04
76291;DHT22;65100;46.884;17.410;2022-11-12T00:35:09;4.36;76.78
76291;DHT22;65100;46.884;17.410;2022-11-12T00:37:36;4.26;77.25
76291;DHT22;65100;46.884;17.410;2022-11-12T00:40:02;4.39;78.46
76291;DHT22;65100;46.884;17.410;2022-11-12T00:42:28;4.32;78.51
76291;DHT22;65100;46.884;17.410;2022-11-12T00:44:53;4.42;81.71
76291;DHT22;65100;46.884;17.410;2022-11-12T00:47:19;4.36;80.21
76291;DHT22;65100;46.884;17.410;2022-11-12T00:49:44;4.53;81.08
76291;DHT22;65100;46.884;17.410;2022-11-12T00:52:10;4.47;81.33
76291;DHT22;65100;46.884;17.410;2022-11-12T00:54:35;4.52;81.14
76291;DHT22;65100;46.884;17.410;2022-11-12T00:57:01;4.47;81.72
76291;DHT22;65100;46.884;17.410;2022-11-12T00:59:26;4.42;81.85
76291;DHT22;65100;46.884;17.410;2022-11-12T01:01:52;4.40;80.55
76291;DHT22;65100;46.884;17.410;2022-11-12T01:04:17;4.32;80.95
76291;DHT22;65100;46.884;17.410;2022-11-12T01:06:43;4.33;82.18
76291;DHT22;65100;46.884;17.410;2022-11-12T01:09:08;4.36;79.44
76291;DHT22;65100;46.884;17.410;2022-11-12T01:11:34;4.16;78.09
76291;DHT22;65100;46.884;17.410;2022-11-12T01:14:05;4.07;78.95
76291;DHT22;65100;46.884;17.410;2022-11-12T01:16:34;4.15;79.08
76291;DHT22;65100;46.884;17.410;2022-11-12T01:19:02;4.16;79.01
76291;DHT22;65100;46.884;17.410;2022-11-12T01:21:30;4.09;77.75
76291;DHT22;65100;46.884;17.410;2022-11-12T01:23:57;3.95;77.39
76291;DHT22;65100;46.884;17.410;2022-11-12T01:26:23;3.57;78.98
76291;DHT22;65100;46.884;17.410;2022-11-12T01:28:49;3.45;81.38
76291;DHT22;65100;46.884;17.410;2022-11-12T01:31:28;3.67;80.05
76291;DHT22;65100;46.884;17.410;2022-11-12T01:33:59;3.91;81.32
76291;DHT22;65100;46.884;17.410;2022-11-12T01:36:27;3.94;80.05
76291;DHT22;65100;46.884;17.410;2022-11-12T01:38:54;3.95;80.89
76291;DHT22;65100;46.884;17.410;2022-11-12T01:41:22;3.88;79.43
76291;DHT22;65100;46.884;17.410;2022-11-12T01:46:50;3.72;81.22
76291;DHT22;65100;46.884;17.410;2022-11-12T01:52:19;3.70;81.13
76291;DHT22;65100;46.884;17.410;2022-11-12T01:54:47;3.77;82.35
76291;DHT22;65100;46.884;17.410;2022-11-12T01:57:16;3.75;82.14
76291;DHT22;65100;46.884;17.410;2022-11-12T01:59:46;3.88;83.97
76291;DHT22;65100;46.884;17.410;2022-11-12T02:02:13;4.03;84.48
76291;DHT22;65100;46.884;17.410;2022-11-12T02:04:39;4.15;83.03
76291;DHT22;65100;46.884;17.410;2022-11-12T02:07:06;4.16;83.43
76291;DHT22;65100;46.884;17.410;2022-11-12T02:09:32;4.47;88.08
76291;DHT22;65100;46.884;17.410;2022-11-12T02:11:58;4.76;88.47
76291;DHT22;65100;46.884;17.410;2022-11-12T02:14:24;5.13;90.60
76291;DHT22;65100;46.884;17.410;2022-11-12T02:16:49;5.44;90.61
76291;DHT22;65100;46.884;17.410;2022-11-12T02:19:15;5.48;85.63
76291;DHT22;65100;46.884;17.410;2022-11-12T02:21:41;5.31;85.20
76291;DHT22;65100;46.884;17.410;2022-11-12T02:26:39;5.05;83.67
76291;DHT22;65100;46.884;17.410;2022-11-12T02:29:06;4.69;81.84
76291;DHT22;65100;46.884;17.410;2022-11-12T02:31:32;4.50;82.01
76291;DHT22;65100;46.884;17.410;2022-11-12T02:33:57;4.30;83.05
76291;DHT22;65100;46.884;17.410;2022-11-12T02:36:23;4.33;85.58
76291;DHT22;65100;46.884;17.410;2022-11-12T02:38:49;4.40;86.61
76291;DHT22;65100;46.884;17.410;2022-11-12T02:41:14;4.33;83.64
76291;DHT22;65100;46.884;17.410;2022-11-12T02:43:40;4.40;85.95
76291;DHT22;65100;46.884;17.410;2022-11-12T02:46:06;4.50;83.92
76291;DHT22;65100;46.884;17.410;2022-11-12T02:48:31;4.52;86.25
76291;DHT22;65100;46.884;17.410;2022-11-12T02:50:57;4.61;87.91
76291;DHT22;65100;46.884;17.410;2022-11-12T02:53:22;5.00;88.67
76291;DHT22;65100;46.884;17.410;2022-11-12T02:55:48;5.20;86.39
76291;DHT22;65100;46.884;17.410;2022-11-12T02:58:13;5.32;84.46
76291;DHT22;65100;46.884;17.410;2022-11-12T03:00:39;5.35;83.45
76291;DHT22;65100;46.884;17.410;2022-11-12T03:03:05;5.44;86.28
76291;DHT22;65100;46.884;17.410;2022-11-12T03:05:32;5.42;83.96
76291;DHT22;65100;46.884;17.410;2022-11-12T03:08:00;5.56;82.02
76291;DHT22;65100;46.884;17.410;2022-11-12T03:10:27;5.62;82.81
76291;DHT22;65100;46.884;17.410;2022-11-12T03:12:55;5.62;79.91
76291;DHT22;65100;46.884;17.410;2022-11-12T03:15:21;5.63;80.82
76291;DHT22;65100;46.884;17.410;2022-11-12T03:17:47;5.49;77.53
76291;DHT22;65100;46.884;17.410;2022-11-12T03:20:12;5.34;79.53
76291;DHT22;65100;46.884;17.410;2022-11-12T03:22:38;5.14;80.02
76291;DHT22;65100;46.884;17.410;2022-11-12T03:25:05;4.98;78.39
76291;DHT22;65100;46.884;17.410;2022-11-12T03:27:32;4.81;78.67
76291;DHT22;65100;46.884;17.410;2022-11-12T03:29:57;4.71;80.83
76291;DHT22;65100;46.884;17.410;2022-11-12T03:32:23;4.77;81.43
76291;DHT22;65100;46.884;17.410;2022-11-12T03:34:48;4.79;78.90
76291;DHT22;65100;46.884;17.410;2022-11-12T03:37:14;4.54;79.79
76291;DHT22;65100;46.884;17.410;2022-11-12T03:39:39;4.64;85.52
76291;DHT22;65100;46.884;17.410;2022-11-12T03:42:05;4.83;83.66
76291;DHT22;65100;46.884;17.410;2022-11-12T03:44:31;5.03;84.64
76291;DHT22;65100;46.884;17.410;2022-11-12T03:46:56;5.15;84.25
76291;DHT22;65100;46.884;17.410;2022-11-12T03:49:22;5.30;83.45
76291;DHT22;65100;46.884;17.410;2022-11-12T03:51:47;5.28;81.93
76291;DHT22;65100;46.884;17.410;2022-11-12T03:54:12;5.17;81.74
76291;DHT22;65100;46.884;17.410;2022-11-12T03:56:38;5.07;82.74
76291;DHT22;65100;46.884;17.410;2022-11-12T03:59:04;5.05;82.55
76291;DHT22;65100;46.884;17.410;2022-11-12T04:01:30;5.14;85.10
76291;DHT22;65100;46.884;17.410;2022-11-12T04:03:55;5.25;85.23
76291;DHT22;65100;46.884;17.410;2022-11-12T04:06:21;5.18;85.78
76291;DHT22;65100;46.884;17.410;2022-11-12T04:09:05;5.17;84.76
76291;DHT22;65100;46.884;17.410;2022-11-12T04:11:30;5.13;82.97
76291;DHT22;65100;46.884;17.410;2022-11-12T04:13:56;5.30;83.25
76291;DHT22;65100;46.884;17.410;2022-11-12T04:16:22;5.37;82.65
76291;DHT22;65100;46.884;17.410;2022-11-12T04:19:11;5.32;77.16
76291;DHT22;65100;46.884;17.410;2022-11-12T04:22:05;5.17;81.76
76291;DHT22;65100;46.884;17.410;2022-11-12T04:24:33;5.13;86.08
76291;DHT22;65100;46.884;17.410;2022-11-12T04:27:18;5.25;87.41
76291;DHT22;65100;46.884;17.410;2022-11-12T04:29:44;5.32;86.43
76291;DHT22;65100;46.884;17.410;2022-11-12T04:32:30;5.48;86.30
76291;DHT22;65100;46.884;17.410;2022-11-12T04:34:56;5.39;83.59
76291;DHT22;65100;46.884;17.410;2022-11-12T04:37:24;5.34;82.94
76291;DHT22;65100;46.884;17.410;2022-11-12T04:39:50;5.35;83.45
76291;DHT22;65100;46.884;17.410;2022-11-12T04:42:16;5.52;83.93
76291;DHT22;65100;46.884;17.410;2022-11-12T04:45:00;5.55;83.39
76291;DHT22;65100;46.884;17.410;2022-11-12T04:47:34;5.58;83.22
76291;DHT22;65100;46.884;17.410;2022-11-12T04:50:01;5.58;83.32
76291;DHT22;65100;46.884;17.410;2022-11-12T04:52:28;5.24;82.75
76291;DHT22;65100;46.884;17.410;2022-11-12T04:54:54;5.15;84.25
76291;DHT22;65100;46.884;17.410;2022-11-12T04:57:20;5.20;84.24
76291;DHT22;65100;46.884;17.410;2022-11-12T04:59:46;5.25;84.25
76291;DHT22;65100;46.884;17.410;2022-11-12T05:02:12;5.20;84.00
76291;DHT22;65100;46.884;17.410;2022-11-12T05:04:38;5.10;84.20
76291;DHT22;65100;46.884;17.410;2022-11-12T05:07:03;5.03;84.43
76291;DHT22;65100;46.884;17.410;2022-11-12T05:09:29;4.95;84.07
76291;DHT22;65100;46.884;17.410;2022-11-12T05:11:54;5.00;84.17
76291;DHT22;65100;46.884;17.410;2022-11-12T05:14:21;5.14;82.86
76291;DHT22;65100;46.884;17.410;2022-11-12T05:16:47;5.23;83.18
76291;DHT22;65100;46.884;17.410;2022-11-12T05:19:13;5.38;83.18
76291;DHT22;65100;46.884;17.410;2022-11-12T05:21:59;5.45;84.09
76291;DHT22;65100;46.884;17.410;2022-11-12T05:24:45;5.42;83.31
76291;DHT22;65100;46.884;17.410;2022-11-12T05:27:17;5.32;83.84
76291;DHT22;65100;46.884;17.410;2022-11-12T05:29:43;5.25;83.73
76291;DHT22;65100;46.884;17.410;2022-11-12T05:32:11;5.23;83.84
76291;DHT22;65100;46.884;17.410;2022-11-12T05:34:37;5.17;83.64
76291;DHT22;65100;46.884;17.410;2022-11-12T05:37:04;4.97;83.09
76291;DHT22;65100;46.884;17.410;2022-11-12T05:39:30;4.69;84.05
76291;DHT22;65100;46.884;17.410;2022-11-12T05:41:56;4.54;83.80
76291;DHT22;65100;46.884;17.410;2022-11-12T05:44:21;4.76;83.99
76291;DHT22;65100;46.884;17.410;2022-11-12T05:46:47;4.88;84.20
76291;DHT22;65100;46.884;17.410;2022-11-12T05:49:13;5.04;84.32
76291;DHT22;65100;46.884;17.410;2022-11-12T05:51:38;5.17;84.96
76291;DHT22;65100;46.884;17.410;2022-11-12T05:54:04;5.25;84.45
76291;DHT22;65100;46.884;17.410;2022-11-12T05:56:30;5.21;84.71
76291;DHT22;65100;46.884;17.410;2022-11-12T05:58:56;4.95;84.56
76291;DHT22;65100;46.884;17.410;2022-11-12T06:01:22;4.60;86.35
76291;DHT22;65100;46.884;17.410;2022-11-12T06:03:48;4.80;86.47
76291;DHT22;65100;46.884;17.410;2022-11-12T06:06:13;5.10;85.88
76291;DHT22;65100;46.884;17.410;2022-11-12T06:08:39;5.11;86.28
76291;DHT22;65100;46.884;17.410;2022-11-12T06:11:04;5.27;85.05
76291;DHT22;65100;46.884;17.410;2022-11-12T06:13:30;5.38;84.47
76291;DHT22;65100;46.884;17.410;2022-11-12T06:15:56;5.42;83.56
76291;DHT22;65100;46.884;17.410;2022-11-12T06:18:22;5.41;83.33
76291;DHT22;65100;46.884;17.410;2022-11-12T06:20:48;5.41;83.24
76291;DHT22;65100;46.884;17.410;2022-11-12T06:23:33;5.45;82.95
76291;DHT22;65100;46.884;17.410;2022-11-12T06:25:59;5.00;83.86
76291;DHT22;65100;46.884;17.410;2022-11-12T06:28:24;5.08;83.78
76291;DHT22;65100;46.884;17.410;2022-11-12T06:30:50;5.27;83.21
76291;DHT22;65100;46.884;17.410;2022-11-12T06:33:15;5.24;84.90
76291;DHT22;65100;46.884;17.410;2022-11-12T06:35:41;5.81;84.31
76291;DHT22;65100;46.884;17.410;2022-11-12T06:38:06;6.12;82.29
76291;DHT22;65100;46.884;17.410;2022-11-12T06:40:32;6.17;80.72
76291;DHT22;65100;46.884;17.410;2022-11-12T06:42:57;6.12;80.59
76291;DHT22;65100;46.884;17.410;2022-11-12T06:45:23;6.50;80.71
76291;DHT22;65100;46.884;17.410;2022-11-12T06:47:49;7.28;79.28
76291;DHT22;65100;46.884;17.410;2022-11-12T06:50:15;7.78;78.17
76291;DHT22;65100;46.884;17.410;2022-11-12T06:52:40;7.97;77.10
76291;DHT22;65100;46.884;17.410;2022-11-12T06:55:06;7.90;78.37
76291;DHT22;65100;46.884;17.410;2022-11-12T06:57:33;7.92;77.01
76291;DHT22;65100;46.884;17.410;2022-11-12T06:59:58;7.93;76.18
76291;DHT22;65100;46.884;17.410;2022-11-12T07:02:24;7.92;77.41
76291;DHT22;65100;46.884;17.410;2022-11-12T07:04:49;7.85;78.14
76291;DHT22;65100;46.884;17.410;2022-11-12T07:07:15;7.82;78.70
76291;DHT22;65100;46.884;17.410;2022-11-12T07:09:40;7.78;80.24
76291;DHT22;65100;46.884;17.410;2022-11-12T07:12:06;8.07;80.09
76291;DHT22;65100;46.884;17.410;2022-11-12T07:14:31;8.34;79.71
76291;DHT22;65100;46.884;17.410;2022-11-12T07:16:57;8.56;78.94
76291;DHT22;65100;46.884;17.410;2022-11-12T07:19:22;8.85;78.18
76291;DHT22;65100;46.884;17.410;2022-11-12T07:21:48;9.12;77.61
76291;DHT22;65100;46.884;17.410;2022-11-12T07:24:13;9.52;76.58
76291;DHT22;65100;46.884;17.410;2022-11-12T07:26:38;9.80;76.06
76291;DHT22;65100;46.884;17.410;2022-11-12T07:29:04;10.07;75.42
76291;DHT22;65100;46.884;17.410;2022-11-12T07:31:31;10.63;74.24
76291;DHT22;65100;46.884;17.410;2022-11-12T07:33:57;11.32;72.70
76291;DHT22;65100;46.884;17.410;2022-11-12T07:36:22;11.59;72.10
76291;DHT22;65100;46.884;17.410;2022-11-12T07:38:51;11.63;71.45
76291;DHT22;65100;46.884;17.410;2022-11-12T07:41:23;11.31;72.17
76291;DHT22;65100;46.884;17.410;2022-11-12T07:43:51;11.18;73.41
76291;DHT22;65100;46.884;17.410;2022-11-12T07:46:25;11.11;73.90
76291;DHT22;65100;46.884;17.410;2022-11-12T07:48:51;11.07;73.59
76291;DHT22;65100;46.884;17.410;2022-11-12T07:51:21;10.94;74.71
76291;DHT22;65100;46.884;17.410;2022-11-12T07:53:49;10.78;74.52
76291;DHT22;65100;46.884;17.410;2022-11-12T07:56:17;10.80;75.52
76291;DHT22;65100;46.884;17.410;2022-11-12T07:58:43;10.77;76.50
76291;DHT22;65100;46.884;17.410;2022-11-12T08:01:30;10.64;76.44
76291;DHT22;65100;46.884;17.410;2022-11-12T08:03:57;10.65;76.44
76291;DHT22;65100;46.884;17.410;2022-11-12T08:06:23;10.51;76.53
76291;DHT22;65100;46.884;17.410;2022-11-12T08:08:52;10.41;76.33
76291;DHT22;65100;46.884;17.410;2022-11-12T08:11:18;10.32;76.65
76291;DHT22;65100;46.884;17.410;2022-11-12T08:13:44;10.24;77.03
76291;DHT22;65100;46.884;17.410;2022-11-12T08:16:09;10.16;77.75
76291;DHT22;65100;46.884;17.410;2022-11-12T08:18:35;10.07;76.49
76291;DHT22;65100;46.884;17.410;2022-11-12T08:21:02;9.99;76.48
76291;DHT22;65100;46.884;17.410;2022-11-12T08:23:28;9.94;76.49
76291;DHT22;65100;46.884;17.410;2022-11-12T08:26:01;9.90;76.66
76291;DHT22;65100;46.884;17.410;2022-11-12T08:28:27;9.89;76.99
76291;DHT22;65100;46.884;17.410;2022-11-12T08:30:53;9.92;77.45
76291;DHT22;65100;46.884;17.410;2022-11-12T08:33:18;9.89;78.41
76291;DHT22;65100;46.884;17.410;2022-11-12T08:35:44;9.93;78.35
76291;DHT22;65100;46.884;17.410;2022-11-12T08:38:09;10.06;78.82
76291;DHT22;65100;46.884;17.410;2022-11-12T08:40:36;10.04;79.11
76291;DHT22;65100;46.884;17.410;2022-11-12T08:43:04;10.04;79.46
76291;DHT22;65100;46.884;17.410;2022-11-12T08:45:31;10.06;80.17
76291;DHT22;65100;46.884;17.410;2022-11-12T08:47:58;10.10;79.60
76291;DHT22;65100;46.884;17.410;2022-11-12T08:50:24;10.09;78.36
76291;DHT22;65100;46.884;17.410;2022-11-12T08:52:50;10.23;78.67
76291;DHT22;65100;46.884;17.410;2022-11-12T08:55:15;10.38;77.87
76291;DHT22;65100;46.884;17.410;2022-11-12T08:57:42;10.61;78.46
76291;DHT22;65100;46.884;17.410;2022-11-12T09:00:11;10.78;76.67
76291;DHT22;65100;46.884;17.410;2022-11-12T09:02:37;10.90;75.74
76291;DHT22;65100;46.884;17.410;2022-11-12T09:05:03;10.87;77.10
76291;DHT22;65100;46.884;17.410;2022-11-12T09:07:30;10.91;76.55
76291;DHT22;65100;46.884;17.410;2022-11-12T09:09:55;10.90;76.24
76291;DHT22;65100;46.884;17.410;2022-11-12T09:12:21;10.90;76.76
76291;DHT22;65100;46.884;17.410;2022-11-12T09:14:46;10.92;77.38
76291;DHT22;65100;46.884;17.410;2022-11-12T09:17:12;11.08;77.89
76291;DHT22;65100;46.884;17.410;2022-11-12T09:19:38;11.18;77.29
76291;DHT22;65100;46.884;17.410;2022-11-12T09:22:04;11.26;76.73
76291;DHT22;65100;46.884;17.410;2022-11-12T09:24:29;11.29;77.16
76291;DHT22;65100;46.884;17.410;2022-11-12T09:26:55;11.48;76.92
76291;DHT22;65100;46.884;17.410;2022-11-12T09:29:20;11.52;75.67
76291;DHT22;65100;46.884;17.410;2022-11-12T09:31:46;11.66;76.77
76291;DHT22;65100;46.884;17.410;2022-11-12T09:34:11;11.75;75.61
76291;DHT22;65100;46.884;17.410;2022-11-12T09:36:37;11.89;75.16
76291;DHT22;65100;46.884;17.410;2022-11-12T09:39:03;12.00;74.67
76291;DHT22;65100;46.884;17.410;2022-11-12T09:41:34;12.07;74.55
76291;DHT22;65100;46.884;17.410;2022-11-12T09:44:08;12.12;71.44
76291;DHT22;65100;46.884;17.410;2022-11-12T09:49:19;12.30;72.40
76291;DHT22;65100;46.884;17.410;2022-11-12T09:51:55;12.37;70.18
76291;DHT22;65100;46.884;17.410;2022-11-12T09:54:33;12.53;66.82
76291;DHT22;65100;46.884;17.410;2022-11-12T09:56:59;12.60;67.93
76291;DHT22;65100;46.884;17.410;2022-11-12T09:59:35;12.67;68.93
76291;DHT22;65100;46.884;17.410;2022-11-12T10:08:01;12.77;67.01
76291;DHT22;65100;46.884;17.410;2022-11-12T10:24:43;13.29;68.76
76291;DHT22;65100;46.884;17.410;2022-11-12T10:27:14;13.32;66.61
76291;DHT22;65100;46.884;17.410;2022-11-12T10:29:45;13.28;65.49
76291;DHT22;65100;46.884;17.410;2022-11-12T10:32:14;13.18;64.59
76291;DHT22;65100;46.884;17.410;2022-11-12T10:34:40;13.12;63.63
76291;DHT22;65100;46.884;17.410;2022-11-12T10:37:21;13.16;65.69
76291;DHT22;65100;46.884;17.410;2022-11-12T10:39:47;13.34;64.74
76291;DHT22;65100;46.884;17.410;2022-11-12T10:42:15;13.35;64.72
76291;DHT22;65100;46.884;17.410;2022-11-12T10:44:41;13.35;65.28
76291;DHT22;65100;46.884;17.410;2022-11-12T10:47:27;13.51;65.36
76291;DHT22;65100;46.884;17.410;2022-11-12T10:50:29;13.58;65.24
76291;DHT22;65100;46.884;17.410;2022-11-12T10:52:57;13.54;64.98
76291;DHT22;65100;46.884;17.410;2022-11-12T10:55:33;13.65;68.19
76291;DHT22;65100;46.884;17.410;2022-11-12T11:00:34;13.55;65.32
76291;DHT22;65100;46.884;17.410;2022-11-12T11:03:02;13.62;66.10
76291;DHT22;65100;46.884;17.410;2022-11-12T11:05:49;13.44;65.40
76291;DHT22;65100;46.884;17.410;2022-11-12T11:08:34;13.48;64.92
76291;DHT22;65100;46.884;17.410;2022-11-12T11:11:15;13.46;65.10
76291;DHT22;65100;46.884;17.410;2022-11-12T11:13:45;13.55;64.88
76291;DHT22;65100;46.884;17.410;2022-11-12T11:16:22;13.66;67.64
76291;DHT22;65100;46.884;17.410;2022-11-12T11:18:52;13.63;64.59
76291;DHT22;65100;46.884;17.410;2022-11-12T11:29:17;13.70;66.85
76291;DHT22;65100;46.884;17.410;2022-11-12T11:31:55;13.70;64.53
76291;DHT22;65100;46.884;17.410;2022-11-12T11:34:42;13.69;63.35
76291;DHT22;65100;46.884;17.410;2022-11-12T11:37:29;13.52;63.39
76291;DHT22;65100;46.884;17.410;2022-11-12T11:40:13;13.44;65.38
76291;DHT22;65100;46.884;17.410;2022-11-12T11:43:10;13.38;65.18
76291;DHT22;65100;46.884;17.410;2022-11-12T11:57:14;12.95;68.29
76291;DHT22;65100;46.884;17.410;2022-11-12T12:03:05;12.92;67.88
76291;DHT22;65100;46.884;17.410;2022-11-12T12:05:42;12.92;68.08
76291;DHT22;65100;46.884;17.410;2022-11-12T12:11:22;13.10;71.72
76291;DHT22;65100;46.884;17.410;2022-11-12T12:17:26;12.94;67.92
76291;DHT22;65100;46.884;17.410;2022-11-12T12:20:11;13.04;70.84
76291;DHT22;65100;46.884;17.410;2022-11-12T12:22:44;13.07;69.83
76291;DHT22;65100;46.884;17.410;2022-11-12T12:25:24;13.08;68.90
76291;DHT22;65100;46.884;17.410;2022-11-12T12:27:58;13.04;67.52
76291;DHT22;65100;46.884;17.410;2022-11-12T12:30:27;13.04;68.96
76291;DHT22;65100;46.884;17.410;2022-11-12T12:35:40;13.14;70.34
76291;DHT22;65100;46.884;17.410;2022-11-12T12:40:53;13.21;69.89
76291;DHT22;65100;46.884;17.410;2022-11-12T12:43:33;13.32;69.04
76291;DHT22;65100;46.884;17.410;2022-11-12T12:46:02;13.34;68.02
76291;DHT22;65100;46.884;17.410;2022-11-12T12:48:31;13.23;66.85
76291;DHT22;65100;46.884;17.410;2022-11-12T12:50:57;13.11;68.33
76291;DHT22;65100;46.884;17.410;2022-11-12T12:55:53;13.21;67.32
76291;DHT22;65100;46.884;17.410;2022-11-12T13:03:58;12.98;67.65
76291;DHT22;65100;46.884;17.410;2022-11-12T13:30:55;13.08;69.08
76291;DHT22;65100;46.884;17.410;2022-11-12T13:32:57;13.10;70.37
76291;DHT22;65100;46.884;17.410;2022-11-12T13:35:28;13.22;68.51
76291;DHT22;65100;46.884;17.410;2022-11-12T13:43:33;13.28;69.05
76291;DHT22;65100;46.884;17.410;2022-11-12T13:48:59;13.31;68.19
76291;DHT22;65100;46.884;17.410;2022-11-12T13:51:43;13.32;68.54
76291;DHT22;65100;46.884;17.410;2022-11-12T13:54:31;13.34;68.24
76291;DHT22;65100;46.884;17.410;2022-11-12T13:57:12;13.34;67.23
76291;DHT22;65100;46.884;17.410;2022-11-12T13:59:38;13.36;68.23
76291;DHT22;65100;46.884;17.410;2022-11-12T14:02:30;13.36;68.85
76291;DHT22;65100;46.884;17.410;2022-11-12T14:04:57;13.34;68.56
76291;DHT22;65100;46.884;17.410;2022-11-12T14:10:18;13.35;70.24
76291;DHT22;65100;46.884;17.410;2022-11-12T14:13:04;13.31;68.87
76291;DHT22;65100;46.884;17.410;2022-11-12T14:20:53;13.25;69.95
76291;DHT22;65100;46.884;17.410;2022-11-12T14:23:20;13.22;69.72
76291;DHT22;65100;46.884;17.410;2022-11-12T14:28:26;13.15;69.60
76291;DHT22;65100;46.884;17.410;2022-11-12T14:30:52;13.15;69.26
76291;DHT22;65100;46.884;17.410;2022-11-12T14:33:20;13.18;68.81
76291;DHT22;65100;46.884;17.410;2022-11-12T14:35:46;13.11;69.64
76291;DHT22;65100;46.884;17.410;2022-11-12T14:45:50;13.05;70.31
76291;DHT22;65100;46.884;17.410;2022-11-12T14:48:16;12.95;70.85
76291;DHT22;65100;46.884;17.410;2022-11-12T14:50:44;12.85;71.95
76291;DHT22;65100;46.884;17.410;2022-11-12T14:53:37;12.90;71.38
76291;DHT22;65100;46.884;17.410;2022-11-12T14:56:06;12.85;70.97
76291;DHT22;65100;46.884;17.410;2022-11-12T14:58:33;12.69;71.13
76291;DHT22;65100;46.884;17.410;2022-11-12T15:01:23;12.67;72.86
76291;DHT22;65100;46.884;17.410;2022-11-12T15:03:49;12.65;72.48
76291;DHT22;65100;46.884;17.410;2022-11-12T15:06:19;12.61;73.22
76291;DHT22;65100;46.884;17.410;2022-11-12T15:08:55;12.63;74.18
76291;DHT22;65100;46.884;17.410;2022-11-12T15:13:50;12.48;74.92
76291;DHT22;65100;46.884;17.410;2022-11-12T15:16:26;12.36;74.65
76291;DHT22;65100;46.884;17.410;2022-11-12T15:19:05;12.30;75.11
76291;DHT22;65100;46.884;17.410;2022-11-12T15:21:32;12.23;75.08
76291;DHT22;65100;46.884;17.410;2022-11-12T15:24:06;12.14;74.80
76291;DHT22;65100;46.884;17.410;2022-11-12T15:26:37;12.10;74.17
76291;DHT22;65100;46.884;17.410;2022-11-12T15:29:27;12.02;73.49
76291;DHT22;65100;46.884;17.410;2022-11-12T15:31:59;11.92;74.02
76291;DHT22;65100;46.884;17.410;2022-11-12T15:39:45;11.66;76.20
76291;DHT22;65100;46.884;17.410;2022-11-12T15:42:37;11.65;77.14
76291;DHT22;65100;46.884;17.410;2022-11-12T15:45:09;11.59;77.12
76291;DHT22;65100;46.884;17.410;2022-11-12T15:47:37;11.65;76.70
76291;DHT22;65100;46.884;17.410;2022-11-12T15:50:22;11.59;77.24
76291;DHT22;65100;46.884;17.410;2022-11-12T15:52:48;11.56;76.80
76291;DHT22;65100;46.884;17.410;2022-11-12T15:55:15;11.58;76.64
76291;DHT22;65100;46.884;17.410;2022-11-12T15:57:43;11.59;76.62
76291;DHT22;65100;46.884;17.410;2022-11-12T16:03:10;11.42;77.27
76291;DHT22;65100;46.884;17.410;2022-11-12T16:05:57;11.34;77.39
76291;DHT22;65100;46.884;17.410;2022-11-12T16:08:23;11.31;78.26
76291;DHT22;65100;46.884;17.410;2022-11-12T16:10:48;11.35;77.36
76291;DHT22;65100;46.884;17.410;2022-11-12T16:13:28;11.36;77.33
76291;DHT22;65100;46.884;17.410;2022-11-12T16:15:55;11.22;78.19
76291;DHT22;65100;46.884;17.410;2022-11-12T16:18:21;11.26;77.51
76291;DHT22;65100;46.884;17.410;2022-11-12T16:20:46;11.31;77.68
76291;DHT22;65100;46.884;17.410;2022-11-12T16:23:13;11.25;77.60
76291;DHT22;65100;46.884;17.410;2022-11-12T16:25:40;11.31;77.46
76291;DHT22;65100;46.884;17.410;2022-11-12T16:28:12;11.32;77.25
76291;DHT22;65100;46.884;17.410;2022-11-12T16:30:39;11.14;78.38
76291;DHT22;65100;46.884;17.410;2022-11-12T16:33:04;11.22;78.26
76291;DHT22;65100;46.884;17.410;2022-11-12T16:35:32;11.21;78.34
76291;DHT22;65100;46.884;17.410;2022-11-12T16:37:58;11.15;78.50
76291;DHT22;65100;46.884;17.410;2022-11-12T16:40:27;11.19;78.85
76291;DHT22;65100;46.884;17.410;2022-11-12T16:42:52;11.21;78.76
76291;DHT22;65100;46.884;17.410;2022-11-12T16:45:20;11.16;78.95
76291;DHT22;65100;46.884;17.410;2022-11-12T16:47:48;11.21;78.62
76291;DHT22;65100;46.884;17.410;2022-11-12T16:50:16;11.24;78.82
76291;DHT22;65100;46.884;17.410;2022-11-12T16:52:42;11.10;79.11
76291;DHT22;65100;46.884;17.410;2022-11-12T16:55:08;11.14;78.84
76291;DHT22;65100;46.884;17.410;2022-11-12T16:57:34;11.22;79.21
76291;DHT22;65100;46.884;17.410;2022-11-12T17:00:00;11.24;78.64
76291;DHT22;65100;46.884;17.410;2022-11-12T17:02:26;11.25;78.53
76291;DHT22;65100;46.884;17.410;2022-11-12T17:04:51;11.21;79.03
76291;DHT22;65100;46.884;17.410;2022-11-12T17:07:17;11.25;78.90
76291;DHT22;65100;46.884;17.410;2022-11-12T17:09:42;11.26;79.46
76291;DHT22;65100;46.884;17.410;2022-11-12T17:12:08;11.26;78.90
76291;DHT22;65100;46.884;17.410;2022-11-12T17:14:34;11.26;78.77
76291;DHT22;65100;46.884;17.410;2022-11-12T17:17:00;11.32;78.73
76291;DHT22;65100;46.884;17.410;2022-11-12T17:19:25;11.31;79.03
76291;DHT22;65100;46.884;17.410;2022-11-12T17:21:51;11.26;79.39
76291;DHT22;65100;46.884;17.410;2022-11-12T17:24:16;11.34;78.88
76291;DHT22;65100;46.884;17.410;2022-11-12T17:26:43;11.38;78.82
76291;DHT22;65100;46.884;17.410;2022-11-12T17:29:09;11.34;79.25
76291;DHT22;65100;46.884;17.410;2022-11-12T17:31:34;11.22;79.58
76291;DHT22;65100;46.884;17.410;2022-11-12T17:34:00;11.24;79.58
76291;DHT22;65100;46.884;17.410;2022-11-12T17:36:28;11.21;80.65
76291;DHT22;65100;46.884;17.410;2022-11-12T17:38:54;11.25;80.02
76291;DHT22;65100;46.884;17.410;2022-11-12T17:41:20;11.19;79.73
76291;DHT22;65100;46.884;17.410;2022-11-12T17:43:46;11.12;80.66
76291;DHT22;65100;46.884;17.410;2022-11-12T17:46:12;11.02;79.78
76291;DHT22;65100;46.884;17.410;2022-11-12T17:48:39;11.12;79.52
76291;DHT22;65100;46.884;17.410;2022-11-12T17:53:30;11.10;79.08